Time;durP1;ratioP1;P1;durP2;ratioP2;P2;SDS_P1;SDS_P2;PMS_P1;PMS_P2;Temp;Humidity;BMP_temperature;BMP_pressure;BME280_temperature;BME280_humidity;BME280_pressure;Samples;Min_cycle;Max_cycle;Signal;HPM_P1;HPM_P2
2021/08/28 00:01:34;;;;;;;;;;;;;;;24.19;46.57;102134.38;5124583;27;19968;-83
2021/08/28 00:03:59;;;;;;;;;;;;;;;24.36;45.53;102127.38;5122692;27;19915;-84
2021/08/28 00:06:25;;;;;;;;;;;;;;;24.30;45.82;102133.44;5140885;27;19915;-84
2021/08/28 00:08:50;;;;;;;;;;;;;;;24.26;45.92;102132.81;5124073;27;19989;-84
2021/08/28 00:11:15;;;;;;;;;;;;;;;23.99;45.85;102131.41;5124015;27;20364;-84
2021/08/28 00:13:43;;;;;;;;;;;;;;;24.31;45.45;102130.53;5124066;27;19927;-84
2021/08/28 00:16:08;;;;;;;;;;;;;;;24.24;45.59;102132.06;5124231;27;19922;-83
2021/08/28 00:18:33;;;;;;;;;;;;;;;24.04;46.07;102119.94;5123656;27;20275;-83
2021/08/28 00:20:58;;;;;;;;;;;;;;;24.08;45.87;102126.09;5123341;27;19927;-84
2021/08/28 00:23:24;;;;;;;;;;;;;;;24.33;45.14;102114.69;5124857;27;19915;-84
2021/08/28 00:25:49;;;;;;;;;;;;;;;24.09;45.88;102123.19;5124652;27;19919;-83
2021/08/28 00:28:14;;;;;;;;;;;;;;;24.08;46.33;102121.47;5124030;27;19915;-83
2021/08/28 00:30:39;;;;;;;;;;;;;;;24.20;45.50;102123.16;5124065;27;19923;-83
2021/08/28 00:33:12;;;;;;;;;;;;;;;24.05;46.11;102122.59;5125613;27;19985;-85
2021/08/28 00:35:37;;;;;;;;;;;;;;;24.18;45.70;102114.09;5126952;27;20325;-86
2021/08/28 00:38:03;;;;;;;;;;;;;;;24.38;45.24;102108.75;5124823;27;19916;-84
2021/08/28 00:40:28;;;;;;;;;;;;;;;24.50;44.66;102110.44;5126093;27;19919;-87
2021/08/28 00:42:53;;;;;;;;;;;;;;;24.53;45.00;102114.84;5146191;27;20002;-86
2021/08/28 00:45:28;;;;;;;;;;;;;;;24.47;45.20;102118.16;5126668;27;19923;-86
2021/08/28 00:47:57;;;;;;;;;;;;;;;24.47;45.33;102116.25;5127142;27;19915;-85
2021/08/28 00:50:27;;;;;;;;;;;;;;;24.55;45.40;102113.69;5127905;27;19927;-85
2021/08/28 00:52:54;;;;;;;;;;;;;;;24.59;45.46;102111.56;5127330;27;19920;-85
2021/08/28 00:55:20;;;;;;;;;;;;;;;24.15;46.78;102121.81;5126880;27;19923;-85
2021/08/28 00:57:46;;;;;;;;;;;;;;;24.57;45.80;102113.56;5125834;27;19919;-85
2021/08/28 01:00:11;;;;;;;;;;;;;;;24.54;45.82;102111.94;5145321;27;19915;-84
2021/08/28 01:02:38;;;;;;;;;;;;;;;24.85;44.74;102120.38;5127394;27;20352;-84
2021/08/28 01:05:09;;;;;;;;;;;;;;;24.66;45.25;102109.16;5126673;27;20329;-85
2021/08/28 01:07:43;;;;;;;;;;;;;;;24.09;47.31;102116.78;5146176;27;20373;-84
2021/08/28 01:10:10;;;;;;;;;;;;;;;24.09;47.71;102116.78;5126908;27;19915;-84
2021/08/28 01:12:37;;;;;;;;;;;;;;;23.79;48.18;102123.88;5144925;27;19934;-85
2021/08/28 01:15:05;;;;;;;;;;;;;;;23.97;48.34;102119.56;5128335;27;19922;-85
2021/08/28 01:17:32;;;;;;;;;;;;;;;23.81;48.84;102128.28;5127913;27;19972;-85
2021/08/28 01:20:03;;;;;;;;;;;;;;;23.74;49.27;102115.97;5129593;27;19919;-85
2021/08/28 01:22:29;;;;;;;;;;;;;;;23.97;48.74;102115.94;5129346;27;19915;-85
2021/08/28 01:24:56;;;;;;;;;;;;;;;24.41;47.38;102120.44;5126653;27;20269;-85
2021/08/28 01:27:40;;;;;;;;;;;;;;;24.89;46.16;102112.66;5126754;27;19915;-85
2021/08/28 01:30:06;;;;;;;;;;;;;;;25.04;45.67;102113.19;5145328;27;19923;-86
2021/08/28 01:32:31;;;;;;;;;;;;;;;24.38;47.17;102122.56;5127949;27;19915;-86
2021/08/28 01:34:58;;;;;;;;;;;;;;;24.66;46.54;102118.31;5127434;27;19923;-86
2021/08/28 01:37:23;;;;;;;;;;;;;;;24.64;46.75;102122.22;5110759;28;19915;-86
2021/08/28 01:39:49;;;;;;;;;;;;;;;25.02;45.89;102118.84;5127789;27;20398;-86
2021/08/28 01:42:14;;;;;;;;;;;;;;;24.87;46.30;102125.75;5127605;27;20379;-86
2021/08/28 01:44:43;;;;;;;;;;;;;;;25.02;46.06;102118.84;5146296;27;19915;-86
2021/08/28 01:47:08;;;;;;;;;;;;;;;25.18;45.64;102120.25;5127779;28;20018;-85
2021/08/28 01:49:34;;;;;;;;;;;;;;;25.09;45.79;102120.06;5128126;27;19945;-84
2021/08/28 01:52:00;;;;;;;;;;;;;;;24.47;47.42;102112.63;5146521;27;19915;-84
2021/08/28 01:54:25;;;;;;;;;;;;;;;24.69;46.94;102117.19;5128458;28;19916;-86
2021/08/28 01:56:51;;;;;;;;;;;;;;;24.76;46.66;102116.50;5127711;27;19922;-85
2021/08/28 01:59:16;;;;;;;;;;;;;;;24.23;47.92;102108.19;5143324;27;19919;-84
2021/08/28 02:01:41;;;;;;;;;;;;;;;24.61;47.12;102112.34;5124978;28;20048;-85
2021/08/28 02:04:06;;;;;;;;;;;;;;;24.48;47.56;102119.91;5124885;28;19915;-86
2021/08/28 02:06:42;;;;;;;;;;;;;;;24.29;48.21;102115.97;5142992;28;19922;-86
2021/08/28 02:09:26;;;;;;;;;;;;;;;24.51;47.66;102117.75;5143740;28;19916;-86
2021/08/28 02:11:58;;;;;;;;;;;;;;;24.06;48.85;102129.88;5126034;28;19915;-86
2021/08/28 02:14:36;;;;;;;;;;;;;;;23.93;48.82;102126.41;5126018;28;20518;-87
2021/08/28 02:17:03;;;;;;;;;;;;;;;23.94;48.97;102121.72;5126794;28;19974;-85
2021/08/28 02:19:33;;;;;;;;;;;;;;;23.47;50.55;102130.19;5126250;28;19915;-86
2021/08/28 02:21:59;;;;;;;;;;;;;;;23.51;50.65;102123.41;5126684;28;19994;-86
2021/08/28 02:24:29;;;;;;;;;;;;;;;23.91;48.97;102127.53;5126589;28;20008;-86
2021/08/28 02:27:14;;;;;;;;;;;;;;;23.99;48.90;102128.63;5125595;28;19949;-85
2021/08/28 02:29:52;;;;;;;;;;;;;;;23.77;49.08;102126.75;5128279;27;19918;-85
2021/08/28 02:32:18;;;;;;;;;;;;;;;24.20;48.09;102125.94;5131761;27;19922;-85
2021/08/28 02:34:44;;;;;;;;;;;;;;;23.77;49.17;102120.38;5130975;27;20478;-86
2021/08/28 02:37:09;;;;;;;;;;;;;;;23.52;50.02;102125.16;5129141;27;19916;-86
2021/08/28 02:39:37;;;;;;;;;;;;;;;23.51;49.93;102124.28;5128058;27;19927;-85
2021/08/28 02:42:03;;;;;;;;;;;;;;;23.78;49.38;102124.88;5147054;27;19915;-84
2021/08/28 02:44:28;;;;;;;;;;;;;;;23.67;49.87;102125.75;5129029;27;19987;-84
2021/08/28 02:46:55;;;;;;;;;;;;;;;23.36;50.47;102123.66;5127968;27;20368;-85
2021/08/28 02:49:22;;;;;;;;;;;;;;;23.78;49.56;102116.56;5147709;27;19915;-83
2021/08/28 02:51:48;;;;;;;;;;;;;;;24.51;47.50;102120.50;5129408;27;19919;-85
2021/08/28 02:54:15;;;;;;;;;;;;;;;24.39;47.54;102124.34;5129801;27;19916;-85
2021/08/28 02:56:41;;;;;;;;;;;;;;;24.48;47.42;102118.00;5147917;27;19915;-85
2021/08/28 02:59:06;;;;;;;;;;;;;;;24.40;47.55;102113.16;5129008;27;19920;-86
2021/08/28 03:01:32;;;;;;;;;;;;;;;23.99;48.55;102111.16;5129418;27;19930;-85
2021/08/28 03:03:58;;;;;;;;;;;;;;;24.01;48.77;102112.78;5129563;27;19916;-85
2021/08/28 03:06:27;;;;;;;;;;;;;;;23.54;50.12;102110.22;5147849;27;19996;-85
2021/08/28 03:08:54;;;;;;;;;;;;;;;23.77;49.45;102115.72;5129355;27;19916;-85
2021/08/28 03:11:19;;;;;;;;;;;;;;;23.93;49.21;102109.81;5129122;27;19962;-85
2021/08/28 03:13:45;;;;;;;;;;;;;;;23.64;49.64;102109.44;5128945;27;19915;-84
2021/08/28 03:16:11;;;;;;;;;;;;;;;23.90;49.09;102110.06;5147557;27;19923;-85
2021/08/28 03:18:38;;;;;;;;;;;;;;;23.78;49.10;102111.03;5129196;27;19951;-83
2021/08/28 03:21:03;;;;;;;;;;;;;;;23.85;49.03;102106.81;5129992;27;19915;-85
2021/08/28 03:23:30;;;;;;;;;;;;;;;23.62;49.58;102106.81;5147428;27;19916;-86
2021/08/28 03:25:57;;;;;;;;;;;;;;;23.19;50.32;102110.38;5128886;27;19915;-86
2021/08/28 03:28:22;;;;;;;;;;;;;;;23.79;49.14;102110.06;5129445;27;19916;-86
2021/08/28 03:30:48;;;;;;;;;;;;;;;24.16;47.84;102118.03;5129544;27;20010;-85
2021/08/28 03:33:17;;;;;;;;;;;;;;;24.05;48.20;102118.94;5147393;27;19922;-83
2021/08/28 03:35:45;;;;;;;;;;;;;;;23.84;48.28;102105.03;5128464;27;19920;-85
2021/08/28 03:38:10;;;;;;;;;;;;;;;23.85;48.62;102106.81;5128812;27;20416;-85
2021/08/28 03:40:37;;;;;;;;;;;;;;;24.17;47.67;102106.84;5126663;27;19919;-85
2021/08/28 03:43:02;;;;;;;;;;;;;;;24.03;47.96;102113.53;5126783;27;20352;-86
2021/08/28 03:45:28;;;;;;;;;;;;;;;23.85;48.56;102115.09;5127614;27;19916;-86
2021/08/28 03:47:54;;;;;;;;;;;;;;;23.89;48.46;102113.84;5128200;27;19915;-86
2021/08/28 03:50:19;;;;;;;;;;;;;;;24.02;48.46;102109.03;5128375;27;19923;-86
2021/08/28 03:52:46;;;;;;;;;;;;;;;24.02;48.07;102114.56;5144428;27;19915;-85
2021/08/28 03:55:11;;;;;;;;;;;;;;;23.57;49.68;102113.72;5124383;27;20013;-88
2021/08/28 03:57:36;;;;;;;;;;;;;;;24.16;48.17;102112.50;5125043;27;19951;-86
2021/08/28 04:00:03;;;;;;;;;;;;;;;24.20;48.01;102116.75;5125355;27;19931;-86
2021/08/28 04:02:28;;;;;;;;;;;;;;;24.38;47.70;102112.41;5127225;27;19961;-85
2021/08/28 04:04:54;;;;;;;;;;;;;;;24.30;47.82;102112.19;5127839;27;19919;-84
2021/08/28 04:07:21;;;;;;;;;;;;;;;24.17;48.56;102114.25;5127460;27;19919;-85
2021/08/28 04:09:46;;;;;;;;;;;;;;;23.94;49.33;102110.69;5127481;27;19923;-85
2021/08/28 04:12:12;;;;;;;;;;;;;;;24.02;49.04;102114.56;5125616;27;20222;-85
2021/08/28 04:14:41;;;;;;;;;;;;;;;24.38;47.73;102120.72;5127548;27;19976;-85
2021/08/28 04:17:06;;;;;;;;;;;;;;;23.81;50.08;102119.06;5127562;27;19968;-85
2021/08/28 04:19:34;;;;;;;;;;;;;;;24.33;48.32;102111.91;5127217;27;19919;-85
2021/08/28 04:21:59;;;;;;;;;;;;;;;24.00;49.31;102118.44;5110134;27;19990;-85
2021/08/28 04:24:24;;;;;;;;;;;;;;;23.85;49.95;102118.75;5127219;27;19955;-85
2021/08/28 04:26:49;;;;;;;;;;;;;;;24.21;49.04;102115.75;5126523;27;19915;-85
2021/08/28 04:29:15;;;;;;;;;;;;;;;24.58;48.04;102113.47;5125651;27;20006;-84
2021/08/28 04:31:40;;;;;;;;;;;;;;;23.40;51.63;102123.41;5126614;27;20322;-85
2021/08/28 04:34:05;;;;;;;;;;;;;;;24.20;48.89;102123.16;5126332;27;20378;-85
2021/08/28 04:36:31;;;;;;;;;;;;;;;24.36;48.38;102122.72;5127880;27;19923;-85
2021/08/28 04:38:56;;;;;;;;;;;;;;;24.54;47.50;102128.53;5127903;27;19914;-85
2021/08/28 04:41:21;;;;;;;;;;;;;;;24.66;47.23;102121.09;5127547;27;19915;-85
2021/08/28 04:43:47;;;;;;;;;;;;;;;24.45;47.69;102118.28;5127243;27;19915;-85
2021/08/28 04:46:12;;;;;;;;;;;;;;;23.96;49.46;102126.13;5128328;27;19915;-84
2021/08/28 04:48:37;;;;;;;;;;;;;;;23.97;48.95;102122.34;5127079;27;19955;-85
2021/08/28 04:51:03;;;;;;;;;;;;;;;23.97;49.39;102127.88;5110046;27;19919;-84
2021/08/28 04:53:28;;;;;;;;;;;;;;;24.47;48.22;102120.91;5145270;27;19916;-85
2021/08/28 04:55:53;;;;;;;;;;;;;;;24.03;49.06;102126.47;5127088;27;19923;-85
2021/08/28 04:58:19;;;;;;;;;;;;;;;24.22;48.60;102121.13;5126011;27;20002;-85
2021/08/28 05:00:45;;;;;;;;;;;;;;;24.11;48.60;102123.97;5145535;27;19923;-85
2021/08/28 05:03:10;;;;;;;;;;;;;;;24.12;48.87;102131.22;5127111;27;19949;-85
2021/08/28 05:05:35;;;;;;;;;;;;;;;23.81;49.52;102128.28;5126015;27;19915;-86
2021/08/28 05:08:01;;;;;;;;;;;;;;;24.05;49.04;102136.41;5126639;27;19919;-86
2021/08/28 05:10:27;;;;;;;;;;;;;;;23.78;50.07;102136.81;5126324;27;19930;-86
2021/08/28 05:12:52;;;;;;;;;;;;;;;23.89;49.39;102138.72;5125737;27;19922;-86
2021/08/28 05:15:17;;;;;;;;;;;;;;;24.07;48.79;102139.03;5143808;27;20061;-85
2021/08/28 05:17:43;;;;;;;;;;;;;;;24.21;48.89;102138.72;5126486;27;19923;-85
2021/08/28 05:20:08;;;;;;;;;;;;;;;24.37;48.16;102141.06;5126321;27;19926;-85
2021/08/28 05:22:35;;;;;;;;;;;;;;;24.27;48.61;102144.75;5125904;27;19916;-86
2021/08/28 05:25:01;;;;;;;;;;;;;;;24.21;48.64;102141.50;5125784;27;19903;-86
2021/08/28 05:27:26;;;;;;;;;;;;;;;24.37;48.08;102140.22;5125567;27;19926;-85
2021/08/28 05:29:53;;;;;;;;;;;;;;;23.89;49.78;102141.47;5125048;27;19919;-84
2021/08/28 05:32:19;;;;;;;;;;;;;;;24.00;49.73;102146.97;5144641;27;19919;-86
2021/08/28 05:34:44;;;;;;;;;;;;;;;24.26;48.65;102148.53;5145704;27;20014;-89
2021/08/28 05:37:10;;;;;;;;;;;;;;;24.59;47.51;102150.31;5126961;27;19953;-86
2021/08/28 05:39:35;;;;;;;;;;;;;;;24.33;48.47;102156.16;5125919;27;19920;-88
2021/08/28 05:42:00;;;;;;;;;;;;;;;24.42;48.44;102152.59;5144243;27;20329;-85
2021/08/28 05:44:26;;;;;;;;;;;;;;;24.22;48.86;102153.47;5126133;27;19915;-86
2021/08/28 05:46:51;;;;;;;;;;;;;;;24.70;47.31;102147.50;5110949;27;20472;-85
2021/08/28 05:49:19;;;;;;;;;;;;;;;24.49;47.56;102147.44;5126196;27;19926;-85
2021/08/28 05:51:47;;;;;;;;;;;;;;;24.46;48.18;102156.00;5143726;27;19982;-86
2021/08/28 05:54:14;;;;;;;;;;;;;;;24.62;47.72;102155.56;5123906;27;19900;-85
2021/08/28 05:56:39;;;;;;;;;;;;;;;24.10;49.01;102157.28;5123900;27;19926;-85
2021/08/28 05:59:05;;;;;;;;;;;;;;;24.40;48.26;102160.16;5140953;27;19912;-83
2021/08/28 06:01:30;;;;;;;;;;;;;;;24.22;48.79;102154.31;5142168;27;20332;-86
2021/08/28 06:04:02;;;;;;;;;;;;;;;24.43;48.39;102156.28;5143578;27;19915;-85
2021/08/28 06:06:29;;;;;;;;;;;;;;;24.76;47.58;102162.69;5145462;28;19936;-86
2021/08/28 06:08:54;;;;;;;;;;;;;;;24.34;48.61;102160.69;5144352;28;20443;-84
2021/08/28 06:11:23;;;;;;;;;;;;;;;24.71;47.99;102157.53;5126960;28;19993;-83
2021/08/28 06:13:48;;;;;;;;;;;;;;;24.46;49.09;102166.16;5126987;28;19906;-83
2021/08/28 06:16:14;;;;;;;;;;;;;;;24.96;47.60;102163.69;5143419;28;19963;-85
2021/08/28 06:18:40;;;;;;;;;;;;;;;24.53;48.75;102171.06;5144405;28;19926;-84
2021/08/28 06:21:06;;;;;;;;;;;;;;;25.33;46.94;102168.75;5125472;28;20344;-84
2021/08/28 06:23:33;;;;;;;;;;;;;;;25.42;46.65;102165.16;5145667;28;19923;-84
2021/08/28 06:26:06;;;;;;;;;;;;;;;25.21;47.44;102179.03;5119394;28;19903;-83
2021/08/28 06:28:31;;;;;;;;;;;;;;;25.20;47.78;102173.59;5143292;28;20350;-86
2021/08/28 06:30:57;;;;;;;;;;;;;;;25.44;47.21;102168.69;5143345;28;19928;-85
2021/08/28 06:33:24;;;;;;;;;;;;;;;26.09;45.51;102173.88;5125672;28;19928;-84
2021/08/28 06:35:49;;;;;;;;;;;;;;;25.91;46.12;102176.44;5145795;28;20006;-84
2021/08/28 06:38:14;;;;;;;;;;;;;;;25.40;46.93;102166.31;5126800;28;19919;-85
2021/08/28 06:40:40;;;;;;;;;;;;;;;25.08;48.25;102168.16;5125549;28;19988;-87
2021/08/28 06:43:05;;;;;;;;;;;;;;;25.08;48.02;102173.69;5144453;28;19915;-86
2021/08/28 06:45:30;;;;;;;;;;;;;;;26.12;45.61;102158.88;5125524;28;20010;-87
2021/08/28 06:47:55;;;;;;;;;;;;;;;26.50;44.85;102162.69;5127162;28;19915;-87
2021/08/28 06:50:21;;;;;;;;;;;;;;;25.29;47.28;102161.72;5127366;28;19921;-87
2021/08/28 06:52:46;;;;;;;;;;;;;;;25.29;47.68;102157.06;5126918;28;20060;-90
2021/08/28 06:55:14;;;;;;;;;;;;;;;26.15;44.97;102155.81;5127752;28;19968;-85
2021/08/28 06:57:39;;;;;;;;;;;;;;;26.09;45.42;102160.03;5146628;28;19916;-85
2021/08/28 07:00:05;;;;;;;;;;;;;;;26.20;44.68;102163.69;5129776;28;20364;-89
2021/08/28 07:02:30;;;;;;;;;;;;;;;26.55;43.78;102163.13;5145726;28;19921;-86
2021/08/28 07:04:56;;;;;;;;;;;;;;;26.48;44.11;102165.63;5142036;28;20337;-87
2021/08/28 07:07:21;;;;;;;;;;;;;;;26.74;43.18;102172.47;5124300;28;19923;-86
2021/08/28 07:09:47;;;;;;;;;;;;;;;25.25;45.94;102163.88;5123276;28;19923;-84
2021/08/28 07:12:12;;;;;;;;;;;;;;;26.21;43.60;102166.31;5123355;28;19916;-88
2021/08/28 07:14:41;;;;;;;;;;;;;;;26.36;43.11;102172.34;5121954;27;19920;-86
2021/08/28 07:17:12;;;;;;;;;;;;;;;26.30;42.96;102175.66;5124371;27;19976;-87
2021/08/28 07:19:38;;;;;;;;;;;;;;;26.75;42.72;102171.47;5125714;27;19927;-86
2021/08/28 07:22:03;;;;;;;;;;;;;;;26.45;42.85;102174.22;5126929;27;19915;-87
2021/08/28 07:24:28;;;;;;;;;;;;;;;27.01;41.88;102180.06;5126641;27;19915;-86
2021/08/28 07:26:54;;;;;;;;;;;;;;;26.30;42.92;102175.66;5125753;27;19915;-86
2021/08/28 07:29:22;;;;;;;;;;;;;;;26.17;43.11;102167.63;5124940;27;19915;-86
2021/08/28 07:31:47;;;;;;;;;;;;;;;26.53;43.07;102173.50;5124890;27;19957;-85
2021/08/28 07:34:12;;;;;;;;;;;;;;;26.71;43.18;102165.34;5125299;27;19961;-87
2021/08/28 07:36:39;;;;;;;;;;;;;;;27.11;41.99;102164.25;5126854;27;19961;-87
2021/08/28 07:39:04;;;;;;;;;;;;;;;27.02;42.49;102170.69;5125357;27;19907;-87
2021/08/28 07:41:37;;;;;;;;;;;;;;;27.35;41.76;102172.09;5125712;27;19940;-86
2021/08/28 07:44:02;;;;;;;;;;;;;;;26.48;43.46;102173.03;5143213;27;20404;-88
2021/08/28 07:46:27;;;;;;;;;;;;;;;27.16;42.12;102167.47;5141124;27;19989;-89
2021/08/28 07:48:53;;;;;;;;;;;;;;;26.16;44.14;102174.19;5123687;27;20364;-89
2021/08/28 07:51:18;;;;;;;;;;;;;;;26.57;43.40;102177.72;5124057;27;19915;-88
2021/08/28 07:53:43;;;;;;;;;;;;;;;26.46;43.38;102180.66;5143792;27;20265;-86
2021/08/28 07:56:08;;;;;;;;;;;;;;;26.79;42.20;102172.94;5126129;27;19922;-86
2021/08/28 07:58:34;;;;;;;;;;;;;;;26.44;42.92;102177.16;5124742;27;19921;-87
2021/08/28 08:00:59;;;;;;;;;;;;;;;25.88;43.21;102173.94;5123848;27;20018;-85
2021/08/28 08:03:25;;;;;;;;;;;;;;;25.84;43.64;102175.25;5124556;27;19949;-87
2021/08/28 08:05:50;;;;;;;;;;;;;;;25.60;43.90;102183.91;5124745;27;19976;-86
2021/08/28 08:08:16;;;;;;;;;;;;;;;25.30;44.15;102182.88;5123372;27;19950;-85
2021/08/28 08:10:41;;;;;;;;;;;;;;;25.53;43.91;102186.38;5124434;27;20014;-87
2021/08/28 08:13:06;;;;;;;;;;;;;;;26.06;43.14;102184.38;5124404;27;19920;-87
2021/08/28 08:15:36;;;;;;;;;;;;;;;26.51;42.36;102195.84;5123750;27;19919;-87
2021/08/28 08:18:02;;;;;;;;;;;;;;;26.79;41.67;102198.78;5121810;27;20368;-85
2021/08/28 08:20:27;;;;;;;;;;;;;;;26.42;42.74;102198.59;5140195;27;19915;-84
2021/08/28 08:22:52;;;;;;;;;;;;;;;26.51;42.24;102195.84;5140649;27;20289;-83
2021/08/28 08:25:19;;;;;;;;;;;;;;;27.85;39.53;102195.03;5122047;27;19915;-84
2021/08/28 08:27:44;;;;;;;;;;;;;;;26.79;41.54;102186.81;5120705;27;19915;-85
2021/08/28 08:30:10;;;;;;;;;;;;;;;27.51;40.43;102196.50;5120561;27;19942;-85
2021/08/28 08:32:35;;;;;;;;;;;;;;;27.26;40.08;102198.00;5104530;27;19915;-84
2021/08/28 08:35:01;;;;;;;;;;;;;;;27.12;39.76;102192.91;5121407;27;20375;-84
2021/08/28 08:37:26;;;;;;;;;;;;;;;26.61;40.81;102200.53;5123258;27;19930;-87
2021/08/28 08:39:52;;;;;;;;;;;;;;;26.09;41.56;102193.31;5122620;27;19926;-86
2021/08/28 08:42:18;;;;;;;;;;;;;;;26.80;40.21;102189.44;5123018;27;19915;-88
2021/08/28 08:44:45;;;;;;;;;;;;;;;26.91;40.82;102193.97;5122426;27;19931;-86
2021/08/28 08:47:10;;;;;;;;;;;;;;;27.04;40.21;102190.91;5121345;27;19959;-87
2021/08/28 08:49:36;;;;;;;;;;;;;;;26.65;41.15;102196.44;5122320;27;20394;-85
2021/08/28 08:52:02;;;;;;;;;;;;;;;25.77;42.60;102201.75;5122455;27;19922;-86
2021/08/28 08:54:27;;;;;;;;;;;;;;;26.26;41.51;102201.94;5121213;27;19919;-85
2021/08/28 08:56:53;;;;;;;;;;;;;;;26.65;41.55;102215.88;5120938;27;19915;-85
2021/08/28 08:59:18;;;;;;;;;;;;;;;27.94;38.81;102206.09;5121060;27;19919;-88
2021/08/28 09:01:43;;;;;;;;;;;;;;;27.99;38.53;102210.34;5139582;27;19923;-88
2021/08/28 09:04:10;;;;;;;;;;;;;;;27.66;38.52;102208.00;5122908;27;20006;-89
2021/08/28 09:06:35;;;;;;;;;;;;;;;26.69;40.84;102209.00;5124275;27;19915;-87
2021/08/28 09:09:00;;;;;;;;;;;;;;;26.52;40.70;102207.81;5125045;27;19923;-90
2021/08/28 09:11:30;;;;;;;;;;;;;;;26.18;41.13;102214.63;5124019;27;19920;-88
2021/08/28 09:14:14;;;;;;;;;;;;;;;26.87;40.20;102214.72;5123213;27;19915;-87
2021/08/28 09:16:40;;;;;;;;;;;;;;;26.94;40.01;102206.69;5123245;27;19916;-88
2021/08/28 09:19:05;;;;;;;;;;;;;;;26.46;41.40;102206.50;5140135;27;19916;-86
2021/08/28 09:21:32;;;;;;;;;;;;;;;26.81;40.68;102213.44;5128102;27;19951;-87
2021/08/28 09:23:58;;;;;;;;;;;;;;;27.00;40.42;102208.88;5150352;27;19958;-87
2021/08/28 09:26:33;;;;;;;;;;;;;;;27.10;39.95;102218.06;5142737;27;19930;-86
2021/08/28 09:28:59;;;;;;;;;;;;;;;27.86;38.50;102213.47;5125774;27;19919;-86
2021/08/28 09:31:36;;;;;;;;;;;;;;;27.42;39.35;102216.88;5129725;27;19957;-88
2021/08/28 09:34:25;;;;;;;;;;;;;;;27.14;39.99;102224.19;5150302;27;19938;-87
2021/08/28 09:36:58;;;;;;;;;;;;;;;26.85;40.03;102212.09;5113795;27;19922;-87
2021/08/28 09:39:35;;;;;;;;;;;;;;;27.18;39.34;102220.09;5127627;27;19919;-86
2021/08/28 09:42:01;;;;;;;;;;;;;;;27.04;39.55;102216.75;5128756;27;20295;-85
2021/08/28 09:44:26;;;;;;;;;;;;;;;27.00;39.62;102217.22;5141493;27;19922;-86
2021/08/28 09:46:51;;;;;;;;;;;;;;;26.45;40.71;102220.50;5142052;27;19968;-86
2021/08/28 09:49:21;;;;;;;;;;;;;;;27.43;39.50;102217.72;5140806;27;19919;-88
2021/08/28 09:51:47;;;;;;;;;;;;;;;27.91;38.65;102219.44;5124818;27;20137;-87
2021/08/28 09:54:12;;;;;;;;;;;;;;;28.58;37.60;102221.97;5142853;27;19915;-86
2021/08/28 09:56:41;;;;;;;;;;;;;;;27.93;36.98;102222.94;5142113;27;19967;-85
2021/08/28 09:59:22;;;;;;;;;;;;;;;28.60;35.53;102211.59;5129815;27;20143;-86
2021/08/28 10:01:48;;;;;;;;;;;;;;;27.00;38.56;102215.28;5132207;27;20384;-85
2021/08/28 10:04:13;;;;;;;;;;;;;;;26.83;39.96;102225.25;5147008;27;19922;-85
2021/08/28 10:06:44;;;;;;;;;;;;;;;27.70;38.60;102225.25;5149121;27;19922;-86
2021/08/28 10:09:09;;;;;;;;;;;;;;;27.34;38.41;102231.50;5128344;27;19915;-84
2021/08/28 10:11:35;;;;;;;;;;;;;;;27.11;38.95;102218.94;5147277;27;20283;-85
2021/08/28 10:14:00;;;;;;;;;;;;;;;27.28;38.68;102231.19;5139239;28;19926;-86
2021/08/28 10:16:26;;;;;;;;;;;;;;;27.51;38.17;102217.88;5137529;28;19915;-85
2021/08/28 10:18:51;;;;;;;;;;;;;;;26.61;39.62;102217.19;5121021;28;19915;-87
2021/08/28 10:21:16;;;;;;;;;;;;;;;26.99;39.11;102212.66;5119403;28;19923;-86
2021/08/28 10:23:42;;;;;;;;;;;;;;;28.53;36.92;102207.66;5119553;28;20383;-86
2021/08/28 10:26:09;;;;;;;;;;;;;;;29.28;35.38;102207.31;5121192;28;19924;-87
2021/08/28 10:28:34;;;;;;;;;;;;;;;28.35;35.67;102210.44;5119360;28;19915;-81
2021/08/28 10:31:00;;;;;;;;;;;;;;;28.91;35.32;102219.53;5122754;28;19962;-85
2021/08/28 10:33:25;;;;;;;;;;;;;;;28.67;36.37;102218.28;5121472;28;19916;-89
2021/08/28 10:36:02;;;;;;;;;;;;;;;29.25;35.00;102204.84;5120602;28;19915;-89
2021/08/28 10:38:27;;;;;;;;;;;;;;;29.31;34.59;102213.44;5121382;28;19924;-85
2021/08/28 10:40:54;;;;;;;;;;;;;;;29.35;34.04;102216.78;5118979;28;19931;-85
2021/08/28 10:43:19;;;;;;;;;;;;;;;29.80;34.26;102215.66;5120239;28;19923;-85
2021/08/28 10:45:46;;;;;;;;;;;;;;;29.43;34.18;102216.81;5120890;28;20409;-86
2021/08/28 10:48:14;;;;;;;;;;;;;;;29.05;34.72;102226.44;5139554;28;19951;-85
2021/08/28 10:50:40;;;;;;;;;;;;;;;29.01;35.10;102225.88;5123496;27;19959;-86
2021/08/28 10:53:06;;;;;;;;;;;;;;;28.72;35.07;102228.94;5123482;27;20357;-85
2021/08/28 10:55:34;;;;;;;;;;;;;;;28.05;35.91;102220.84;5107659;27;19926;-86
2021/08/28 10:58:09;;;;;;;;;;;;;;;28.28;35.78;102226.88;5124431;27;19915;-85
2021/08/28 11:00:42;;;;;;;;;;;;;;;28.12;36.29;102224.78;5124427;27;19923;-84
2021/08/28 11:03:21;;;;;;;;;;;;;;;28.36;35.64;102229.75;5124272;27;20004;-85
2021/08/28 11:05:46;;;;;;;;;;;;;;;28.89;34.21;102224.41;5142779;27;19916;-86
2021/08/28 11:08:16;;;;;;;;;;;;;;;28.48;35.26;102226.75;5142935;27;19923;-84
2021/08/28 11:10:41;;;;;;;;;;;;;;;28.94;34.50;102231.25;5124570;27;20339;-86
2021/08/28 11:13:06;;;;;;;;;;;;;;;28.53;35.03;102216.88;5143190;27;19920;-84
2021/08/28 11:15:35;;;;;;;;;;;;;;;28.98;33.54;102224.28;5142229;27;19922;-83
2021/08/28 11:18:02;;;;;;;;;;;;;;;29.14;33.11;102214.34;5140409;27;20029;-85
2021/08/28 11:20:32;;;;;;;;;;;;;;;28.82;34.30;102232.50;5123522;27;19972;-85
2021/08/28 11:22:59;;;;;;;;;;;;;;;27.27;36.10;102229.44;5122666;27;20458;-84
2021/08/28 11:25:28;;;;;;;;;;;;;;;28.22;34.95;102224.72;5141580;27;20010;-84
2021/08/28 11:27:54;;;;;;;;;;;;;;;28.84;34.63;102223.97;5123925;27;19922;-85
2021/08/28 11:30:39;;;;;;;;;;;;;;;28.95;33.50;102227.41;5122590;27;19919;-85
2021/08/28 11:33:07;;;;;;;;;;;;;;;28.31;34.76;102223.78;5123655;27;19931;-84
2021/08/28 11:35:33;;;;;;;;;;;;;;;28.09;35.38;102230.66;5140049;27;19950;-85
2021/08/28 11:38:05;;;;;;;;;;;;;;;28.89;34.11;102225.25;5121774;27;19937;-87
2021/08/28 11:40:31;;;;;;;;;;;;;;;29.68;32.71;102217.84;5123478;27;20006;-85
2021/08/28 11:42:57;;;;;;;;;;;;;;;29.31;33.11;102224.56;5140665;27;19923;-85
2021/08/28 11:45:29;;;;;;;;;;;;;;;29.05;33.49;102218.97;5121879;27;19915;-86
2021/08/28 11:47:55;;;;;;;;;;;;;;;29.21;32.78;102223.81;5121981;27;19915;-84
2021/08/28 11:50:27;;;;;;;;;;;;;;;28.85;33.27;102231.31;5122396;27;19968;-86
2021/08/28 11:52:53;;;;;;;;;;;;;;;29.40;33.24;102231.09;5140627;27;19980;-85
2021/08/28 11:55:22;;;;;;;;;;;;;;;28.66;34.15;102221.22;5121866;27;19916;-85
2021/08/28 11:57:58;;;;;;;;;;;;;;;28.54;34.60;102224.19;5139636;27;20366;-87
2021/08/28 12:00:27;;;;;;;;;;;;;;;29.12;33.90;102221.97;5139974;27;19930;-85
2021/08/28 12:02:55;;;;;;;;;;;;;;;28.92;33.30;102222.16;5139533;27;19916;-85
2021/08/28 12:05:21;;;;;;;;;;;;;;;28.04;35.45;102227.47;5121755;27;19975;-85
2021/08/28 12:07:50;;;;;;;;;;;;;;;28.48;34.88;102240.69;5122260;27;19918;-87
2021/08/28 12:10:16;;;;;;;;;;;;;;;29.03;33.82;102231.31;5122693;27;19923;-85
2021/08/28 12:12:41;;;;;;;;;;;;;;;28.80;34.81;102232.66;5124020;27;19915;-85
2021/08/28 12:15:06;;;;;;;;;;;;;;;28.57;34.46;102232.25;5123157;27;19944;-86
2021/08/28 12:17:32;;;;;;;;;;;;;;;29.56;32.35;102229.44;5122322;27;19916;-85
2021/08/28 12:19:59;;;;;;;;;;;;;;;30.01;31.21;102229.19;5122838;27;20364;-85
2021/08/28 12:22:24;;;;;;;;;;;;;;;29.95;32.23;102218.69;5121253;27;19923;-86
2021/08/28 12:24:51;;;;;;;;;;;;;;;29.69;32.09;102225.16;5141323;27;19919;-83
2021/08/28 12:27:17;;;;;;;;;;;;;;;31.00;29.93;102220.19;5141479;27;20314;-83
2021/08/28 12:29:43;;;;;;;;;;;;;;;30.42;30.20;102219.22;5121613;27;20017;-85
2021/08/28 12:32:13;;;;;;;;;;;;;;;30.01;30.67;102219.94;5140556;27;19919;-82
2021/08/28 12:34:42;;;;;;;;;;;;;;;30.33;30.32;102216.41;5139883;27;19961;-83